sensor_id;sensor_type;location;lat;lon;timestamp;P1;durP1;ratioP1;P2;durP2;ratioP2
42192;SDS011;52467;40.114;18.306;2022-11-14T00:00:44;21.35;;;6.60;;
42192;SDS011;52467;40.114;18.306;2022-11-14T00:03:51;18.07;;;7.20;;
42192;SDS011;52467;40.114;18.306;2022-11-14T00:06:37;20.38;;;7.25;;
42192;SDS011;52467;40.114;18.306;2022-11-14T00:09:24;17.48;;;6.97;;
42192;SDS011;52467;40.114;18.306;2022-11-14T00:12:10;21.50;;;7.43;;
42192;SDS011;52467;40.114;18.306;2022-11-14T00:14:56;19.10;;;7.65;;
42192;SDS011;52467;40.114;18.306;2022-11-14T00:17:42;18.13;;;7.13;;
42192;SDS011;52467;40.114;18.306;2022-11-14T00:20:28;22.20;;;7.63;;
42192;SDS011;52467;40.114;18.306;2022-11-14T00:23:14;21.13;;;7.55;;
42192;SDS011;52467;40.114;18.306;2022-11-14T00:26:03;20.90;;;7.13;;
42192;SDS011;52467;40.114;18.306;2022-11-14T00:28:49;17.10;;;7.60;;
42192;SDS011;52467;40.114;18.306;2022-11-14T00:31:35;15.57;;;6.75;;
42192;SDS011;52467;40.114;18.306;2022-11-14T00:34:21;20.85;;;7.82;;
42192;SDS011;52467;40.114;18.306;2022-11-14T00:37:07;14.43;;;6.88;;
42192;SDS011;52467;40.114;18.306;2022-11-14T00:39:53;17.77;;;7.10;;
42192;SDS011;52467;40.114;18.306;2022-11-14T00:42:39;17.15;;;7.78;;
42192;SDS011;52467;40.114;18.306;2022-11-14T00:45:25;16.85;;;7.70;;
42192;SDS011;52467;40.114;18.306;2022-11-14T00:48:11;17.10;;;7.10;;
42192;SDS011;52467;40.114;18.306;2022-11-14T00:50:57;17.53;;;7.27;;
42192;SDS011;52467;40.114;18.306;2022-11-14T00:53:43;18.05;;;7.82;;
42192;SDS011;52467;40.114;18.306;2022-11-14T00:56:29;18.10;;;8.10;;
42192;SDS011;52467;40.114;18.306;2022-11-14T00:59:14;15.65;;;7.60;;
42192;SDS011;52467;40.114;18.306;2022-11-14T01:02:00;17.38;;;7.55;;
42192;SDS011;52467;40.114;18.306;2022-11-14T01:04:48;17.40;;;7.55;;
42192;SDS011;52467;40.114;18.306;2022-11-14T01:07:33;16.00;;;7.00;;
42192;SDS011;52467;40.114;18.306;2022-11-14T01:10:19;15.68;;;6.95;;
42192;SDS011;52467;40.114;18.306;2022-11-14T01:13:06;16.40;;;7.70;;
42192;SDS011;52467;40.114;18.306;2022-11-14T01:15:52;18.52;;;7.60;;
42192;SDS011;52467;40.114;18.306;2022-11-14T01:18:39;14.02;;;7.07;;
42192;SDS011;52467;40.114;18.306;2022-11-14T01:21:25;16.35;;;7.88;;
42192;SDS011;52467;40.114;18.306;2022-11-14T01:24:11;14.65;;;7.78;;
42192;SDS011;52467;40.114;18.306;2022-11-14T01:26:57;17.17;;;7.07;;
42192;SDS011;52467;40.114;18.306;2022-11-14T01:29:42;14.75;;;6.28;;
42192;SDS011;52467;40.114;18.306;2022-11-14T01:32:29;16.25;;;6.82;;
42192;SDS011;52467;40.114;18.306;2022-11-14T01:35:15;15.17;;;6.20;;
42192;SDS011;52467;40.114;18.306;2022-11-14T01:38:01;12.98;;;5.55;;
42192;SDS011;52467;40.114;18.306;2022-11-14T01:40:48;10.05;;;5.57;;
42192;SDS011;52467;40.114;18.306;2022-11-14T01:43:37;8.93;;;5.40;;
42192;SDS011;52467;40.114;18.306;2022-11-14T01:46:25;8.60;;;4.88;;
42192;SDS011;52467;40.114;18.306;2022-11-14T01:49:30;12.50;;;5.07;;
42192;SDS011;52467;40.114;18.306;2022-11-14T01:52:27;7.80;;;4.72;;
42192;SDS011;52467;40.114;18.306;2022-11-14T01:55:15;8.30;;;4.80;;
42192;SDS011;52467;40.114;18.306;2022-11-14T01:58:01;12.25;;;4.85;;
42192;SDS011;52467;40.114;18.306;2022-11-14T02:00:47;10.90;;;5.00;;
42192;SDS011;52467;40.114;18.306;2022-11-14T02:03:34;11.20;;;5.13;;
42192;SDS011;52467;40.114;18.306;2022-11-14T02:06:22;8.75;;;4.93;;
42192;SDS011;52467;40.114;18.306;2022-11-14T02:09:11;11.60;;;5.10;;
42192;SDS011;52467;40.114;18.306;2022-11-14T02:11:57;9.52;;;4.78;;
42192;SDS011;52467;40.114;18.306;2022-11-14T02:14:46;12.25;;;5.03;;
42192;SDS011;52467;40.114;18.306;2022-11-14T02:17:33;11.60;;;4.88;;
42192;SDS011;52467;40.114;18.306;2022-11-14T02:20:21;9.07;;;4.53;;
42192;SDS011;52467;40.114;18.306;2022-11-14T02:23:12;7.90;;;4.50;;
42192;SDS011;52467;40.114;18.306;2022-11-14T02:25:59;8.80;;;4.35;;
42192;SDS011;52467;40.114;18.306;2022-11-14T02:28:45;7.37;;;4.40;;
42192;SDS011;52467;40.114;18.306;2022-11-14T02:31:31;6.30;;;4.03;;
42192;SDS011;52467;40.114;18.306;2022-11-14T02:34:17;8.45;;;4.60;;
42192;SDS011;52467;40.114;18.306;2022-11-14T02:37:04;8.85;;;4.20;;
42192;SDS011;52467;40.114;18.306;2022-11-14T02:39:51;9.32;;;4.63;;
42192;SDS011;52467;40.114;18.306;2022-11-14T02:42:37;6.27;;;4.23;;
42192;SDS011;52467;40.114;18.306;2022-11-14T02:45:23;9.13;;;4.43;;
42192;SDS011;52467;40.114;18.306;2022-11-14T02:48:09;7.50;;;4.18;;
42192;SDS011;52467;40.114;18.306;2022-11-14T02:50:55;8.55;;;3.90;;
42192;SDS011;52467;40.114;18.306;2022-11-14T02:53:41;9.93;;;4.40;;
42192;SDS011;52467;40.114;18.306;2022-11-14T02:56:27;6.33;;;3.90;;
42192;SDS011;52467;40.114;18.306;2022-11-14T02:59:13;6.17;;;4.10;;
42192;SDS011;52467;40.114;18.306;2022-11-14T03:02:00;7.88;;;4.20;;
42192;SDS011;52467;40.114;18.306;2022-11-14T03:04:45;7.10;;;4.00;;
42192;SDS011;52467;40.114;18.306;2022-11-14T03:07:32;6.53;;;4.00;;
42192;SDS011;52467;40.114;18.306;2022-11-14T03:10:18;7.13;;;4.13;;
42192;SDS011;52467;40.114;18.306;2022-11-14T03:13:04;9.38;;;4.03;;
42192;SDS011;52467;40.114;18.306;2022-11-14T03:15:50;7.22;;;4.03;;
42192;SDS011;52467;40.114;18.306;2022-11-14T03:18:35;8.07;;;3.83;;
42192;SDS011;52467;40.114;18.306;2022-11-14T03:21:22;9.00;;;3.85;;
42192;SDS011;52467;40.114;18.306;2022-11-14T03:24:08;6.93;;;4.33;;
42192;SDS011;52467;40.114;18.306;2022-11-14T03:26:54;8.60;;;4.07;;
42192;SDS011;52467;40.114;18.306;2022-11-14T03:29:40;7.53;;;4.15;;
42192;SDS011;52467;40.114;18.306;2022-11-14T03:32:26;8.23;;;4.00;;
42192;SDS011;52467;40.114;18.306;2022-11-14T03:35:11;11.60;;;3.90;;
42192;SDS011;52467;40.114;18.306;2022-11-14T03:37:57;5.82;;;4.00;;
42192;SDS011;52467;40.114;18.306;2022-11-14T03:40:43;11.20;;;3.60;;
42192;SDS011;52467;40.114;18.306;2022-11-14T03:43:30;8.07;;;3.97;;
42192;SDS011;52467;40.114;18.306;2022-11-14T03:46:17;9.48;;;4.35;;
42192;SDS011;52467;40.114;18.306;2022-11-14T03:49:03;8.70;;;4.45;;
42192;SDS011;52467;40.114;18.306;2022-11-14T03:51:49;13.52;;;4.93;;
42192;SDS011;52467;40.114;18.306;2022-11-14T03:54:35;6.63;;;4.28;;
42192;SDS011;52467;40.114;18.306;2022-11-14T03:57:21;9.75;;;4.15;;
42192;SDS011;52467;40.114;18.306;2022-11-14T04:00:07;7.37;;;3.93;;
42192;SDS011;52467;40.114;18.306;2022-11-14T04:02:54;9.73;;;4.20;;
42192;SDS011;52467;40.114;18.306;2022-11-14T04:05:43;10.50;;;4.28;;
42192;SDS011;52467;40.114;18.306;2022-11-14T04:08:31;7.15;;;4.10;;
42192;SDS011;52467;40.114;18.306;2022-11-14T04:11:17;9.05;;;4.05;;
42192;SDS011;52467;40.114;18.306;2022-11-14T04:14:03;12.43;;;4.77;;
42192;SDS011;52467;40.114;18.306;2022-11-14T04:16:50;8.65;;;3.92;;
42192;SDS011;52467;40.114;18.306;2022-11-14T04:19:36;9.65;;;3.95;;
42192;SDS011;52467;40.114;18.306;2022-11-14T04:22:22;7.32;;;3.70;;
42192;SDS011;52467;40.114;18.306;2022-11-14T04:25:08;7.65;;;3.40;;
42192;SDS011;52467;40.114;18.306;2022-11-14T04:27:55;7.63;;;3.80;;
42192;SDS011;52467;40.114;18.306;2022-11-14T04:30:41;8.52;;;3.70;;
42192;SDS011;52467;40.114;18.306;2022-11-14T04:33:27;7.57;;;3.65;;
42192;SDS011;52467;40.114;18.306;2022-11-14T04:36:13;11.32;;;3.70;;
42192;SDS011;52467;40.114;18.306;2022-11-14T04:38:58;9.10;;;3.72;;
42192;SDS011;52467;40.114;18.306;2022-11-14T04:41:52;8.80;;;3.55;;
42192;SDS011;52467;40.114;18.306;2022-11-14T04:44:38;9.57;;;3.90;;
42192;SDS011;52467;40.114;18.306;2022-11-14T04:47:24;8.50;;;3.60;;
42192;SDS011;52467;40.114;18.306;2022-11-14T04:50:10;8.87;;;3.77;;
42192;SDS011;52467;40.114;18.306;2022-11-14T04:52:55;11.48;;;4.07;;
42192;SDS011;52467;40.114;18.306;2022-11-14T04:55:42;8.82;;;3.75;;
42192;SDS011;52467;40.114;18.306;2022-11-14T04:58:29;10.20;;;3.80;;
42192;SDS011;52467;40.114;18.306;2022-11-14T05:01:16;6.43;;;3.35;;
42192;SDS011;52467;40.114;18.306;2022-11-14T05:04:10;8.75;;;3.53;;
42192;SDS011;52467;40.114;18.306;2022-11-14T05:06:56;7.75;;;3.75;;
42192;SDS011;52467;40.114;18.306;2022-11-14T05:09:41;8.50;;;4.03;;
42192;SDS011;52467;40.114;18.306;2022-11-14T05:12:28;10.35;;;3.55;;
42192;SDS011;52467;40.114;18.306;2022-11-14T05:15:14;8.30;;;3.67;;
42192;SDS011;52467;40.114;18.306;2022-11-14T05:18:00;10.57;;;3.90;;
42192;SDS011;52467;40.114;18.306;2022-11-14T05:20:46;8.80;;;3.85;;
42192;SDS011;52467;40.114;18.306;2022-11-14T05:23:32;8.60;;;3.88;;
42192;SDS011;52467;40.114;18.306;2022-11-14T05:26:18;10.80;;;3.42;;
42192;SDS011;52467;40.114;18.306;2022-11-14T05:29:04;11.73;;;4.18;;
42192;SDS011;52467;40.114;18.306;2022-11-14T05:31:50;11.18;;;4.07;;
42192;SDS011;52467;40.114;18.306;2022-11-14T05:34:36;10.10;;;3.40;;
42192;SDS011;52467;40.114;18.306;2022-11-14T05:37:22;9.55;;;3.60;;
42192;SDS011;52467;40.114;18.306;2022-11-14T05:40:08;7.73;;;3.50;;
42192;SDS011;52467;40.114;18.306;2022-11-14T05:42:55;7.97;;;3.90;;
42192;SDS011;52467;40.114;18.306;2022-11-14T05:45:41;12.68;;;3.95;;
42192;SDS011;52467;40.114;18.306;2022-11-14T05:48:27;10.38;;;4.00;;
42192;SDS011;52467;40.114;18.306;2022-11-14T05:51:13;9.25;;;3.78;;
42192;SDS011;52467;40.114;18.306;2022-11-14T05:53:59;14.00;;;4.30;;
42192;SDS011;52467;40.114;18.306;2022-11-14T05:56:45;11.10;;;3.97;;
42192;SDS011;52467;40.114;18.306;2022-11-14T05:59:31;9.95;;;3.90;;
42192;SDS011;52467;40.114;18.306;2022-11-14T06:02:17;10.88;;;3.78;;
42192;SDS011;52467;40.114;18.306;2022-11-14T06:05:03;9.90;;;4.07;;
42192;SDS011;52467;40.114;18.306;2022-11-14T06:07:56;10.13;;;3.78;;
42192;SDS011;52467;40.114;18.306;2022-11-14T06:10:42;7.82;;;4.35;;
42192;SDS011;52467;40.114;18.306;2022-11-14T06:13:31;9.50;;;4.17;;
42192;SDS011;52467;40.114;18.306;2022-11-14T06:16:17;9.97;;;4.03;;
42192;SDS011;52467;40.114;18.306;2022-11-14T06:19:04;12.53;;;3.80;;
42192;SDS011;52467;40.114;18.306;2022-11-14T06:21:49;12.23;;;4.25;;
42192;SDS011;52467;40.114;18.306;2022-11-14T06:24:35;11.45;;;3.97;;
42192;SDS011;52467;40.114;18.306;2022-11-14T06:27:21;11.00;;;3.90;;
42192;SDS011;52467;40.114;18.306;2022-11-14T06:30:07;11.95;;;4.15;;
42192;SDS011;52467;40.114;18.306;2022-11-14T06:32:56;11.27;;;4.22;;
42192;SDS011;52467;40.114;18.306;2022-11-14T06:35:45;13.53;;;4.67;;
42192;SDS011;52467;40.114;18.306;2022-11-14T06:38:32;22.80;;;10.20;;
42192;SDS011;52467;40.114;18.306;2022-11-14T06:41:20;22.33;;;10.85;;
42192;SDS011;52467;40.114;18.306;2022-11-14T06:44:06;22.50;;;9.70;;
42192;SDS011;52467;40.114;18.306;2022-11-14T06:46:53;26.10;;;12.27;;
42192;SDS011;52467;40.114;18.306;2022-11-14T06:49:40;39.90;;;17.20;;
42192;SDS011;52467;40.114;18.306;2022-11-14T06:52:26;36.58;;;16.13;;
42192;SDS011;52467;40.114;18.306;2022-11-14T06:55:12;27.27;;;13.67;;
42192;SDS011;52467;40.114;18.306;2022-11-14T06:57:58;24.05;;;11.57;;
42192;SDS011;52467;40.114;18.306;2022-11-14T07:00:44;23.33;;;11.15;;
42192;SDS011;52467;40.114;18.306;2022-11-14T07:03:33;19.17;;;8.93;;
42192;SDS011;52467;40.114;18.306;2022-11-14T07:06:20;14.73;;;8.70;;
42192;SDS011;52467;40.114;18.306;2022-11-14T07:09:09;19.87;;;8.77;;
42192;SDS011;52467;40.114;18.306;2022-11-14T07:11:55;18.15;;;8.65;;
42192;SDS011;52467;40.114;18.306;2022-11-14T07:14:41;17.35;;;9.45;;
42192;SDS011;52467;40.114;18.306;2022-11-14T07:17:28;16.70;;;8.30;;
42192;SDS011;52467;40.114;18.306;2022-11-14T07:20:15;16.25;;;7.15;;
42192;SDS011;52467;40.114;18.306;2022-11-14T07:23:02;15.60;;;6.30;;
42192;SDS011;52467;40.114;18.306;2022-11-14T07:25:48;16.10;;;7.15;;
42192;SDS011;52467;40.114;18.306;2022-11-14T07:28:34;15.60;;;6.28;;
42192;SDS011;52467;40.114;18.306;2022-11-14T07:31:23;12.47;;;5.83;;
42192;SDS011;52467;40.114;18.306;2022-11-14T07:34:09;13.93;;;5.65;;
42192;SDS011;52467;40.114;18.306;2022-11-14T07:36:55;13.60;;;5.60;;
42192;SDS011;52467;40.114;18.306;2022-11-14T07:39:41;12.45;;;5.85;;
42192;SDS011;52467;40.114;18.306;2022-11-14T07:42:27;17.42;;;7.05;;
42192;SDS011;52467;40.114;18.306;2022-11-14T07:45:14;14.40;;;6.18;;
42192;SDS011;52467;40.114;18.306;2022-11-14T07:48:00;18.88;;;8.57;;
42192;SDS011;52467;40.114;18.306;2022-11-14T07:50:46;16.77;;;8.50;;
42192;SDS011;52467;40.114;18.306;2022-11-14T07:53:32;18.57;;;8.90;;
42192;SDS011;52467;40.114;18.306;2022-11-14T07:56:18;15.95;;;6.57;;
42192;SDS011;52467;40.114;18.306;2022-11-14T07:59:06;16.85;;;6.35;;
42192;SDS011;52467;40.114;18.306;2022-11-14T08:01:52;11.38;;;5.13;;
42192;SDS011;52467;40.114;18.306;2022-11-14T08:04:42;14.05;;;5.63;;
42192;SDS011;52467;40.114;18.306;2022-11-14T08:07:28;12.98;;;5.50;;
42192;SDS011;52467;40.114;18.306;2022-11-14T08:10:14;12.90;;;5.50;;
42192;SDS011;52467;40.114;18.306;2022-11-14T08:13:05;13.95;;;5.10;;
42192;SDS011;52467;40.114;18.306;2022-11-14T08:16:12;11.73;;;5.65;;
42192;SDS011;52467;40.114;18.306;2022-11-14T08:18:58;12.80;;;5.47;;
42192;SDS011;52467;40.114;18.306;2022-11-14T08:21:44;15.25;;;5.85;;
42192;SDS011;52467;40.114;18.306;2022-11-14T08:24:31;17.27;;;7.50;;
42192;SDS011;52467;40.114;18.306;2022-11-14T08:27:16;20.77;;;7.85;;
42192;SDS011;52467;40.114;18.306;2022-11-14T08:30:03;16.00;;;7.00;;
42192;SDS011;52467;40.114;18.306;2022-11-14T08:32:49;14.90;;;7.68;;
42192;SDS011;52467;40.114;18.306;2022-11-14T08:35:35;17.10;;;8.15;;
42192;SDS011;52467;40.114;18.306;2022-11-14T08:38:21;15.60;;;7.63;;
42192;SDS011;52467;40.114;18.306;2022-11-14T08:41:07;16.48;;;8.68;;
42192;SDS011;52467;40.114;18.306;2022-11-14T08:43:53;14.02;;;7.43;;
42192;SDS011;52467;40.114;18.306;2022-11-14T08:46:39;12.40;;;5.53;;
42192;SDS011;52467;40.114;18.306;2022-11-14T08:49:25;12.13;;;6.40;;
42192;SDS011;52467;40.114;18.306;2022-11-14T08:52:11;11.15;;;6.40;;
42192;SDS011;52467;40.114;18.306;2022-11-14T08:55:00;15.55;;;6.80;;
42192;SDS011;52467;40.114;18.306;2022-11-14T08:57:46;9.95;;;5.47;;
42192;SDS011;52467;40.114;18.306;2022-11-14T09:00:51;10.95;;;4.57;;
42192;SDS011;52467;40.114;18.306;2022-11-14T09:03:37;10.40;;;3.80;;
42192;SDS011;52467;40.114;18.306;2022-11-14T09:06:23;9.43;;;4.30;;
42192;SDS011;52467;40.114;18.306;2022-11-14T09:09:09;8.97;;;3.43;;
42192;SDS011;52467;40.114;18.306;2022-11-14T09:11:55;7.65;;;3.58;;
42192;SDS011;52467;40.114;18.306;2022-11-14T09:14:41;6.70;;;3.60;;
42192;SDS011;52467;40.114;18.306;2022-11-14T09:17:28;9.27;;;3.38;;
42192;SDS011;52467;40.114;18.306;2022-11-14T09:20:14;4.70;;;3.10;;
42192;SDS011;52467;40.114;18.306;2022-11-14T09:23:00;5.55;;;2.85;;
42192;SDS011;52467;40.114;18.306;2022-11-14T09:25:46;4.85;;;2.60;;
42192;SDS011;52467;40.114;18.306;2022-11-14T09:28:32;5.60;;;3.20;;
42192;SDS011;52467;40.114;18.306;2022-11-14T09:31:18;6.50;;;3.33;;
42192;SDS011;52467;40.114;18.306;2022-11-14T09:34:04;6.25;;;3.03;;
42192;SDS011;52467;40.114;18.306;2022-11-14T09:36:50;5.80;;;2.90;;
42192;SDS011;52467;40.114;18.306;2022-11-14T09:39:36;7.18;;;3.28;;
42192;SDS011;52467;40.114;18.306;2022-11-14T09:45:32;7.27;;;3.70;;
42192;SDS011;52467;40.114;18.306;2022-11-14T09:48:20;5.10;;;3.00;;
42192;SDS011;52467;40.114;18.306;2022-11-14T09:51:18;3.63;;;2.60;;
42192;SDS011;52467;40.114;18.306;2022-11-14T09:54:10;6.68;;;2.85;;
42192;SDS011;52467;40.114;18.306;2022-11-14T09:57:03;4.93;;;2.75;;
42192;SDS011;52467;40.114;18.306;2022-11-14T09:59:53;3.75;;;2.78;;
42192;SDS011;52467;40.114;18.306;2022-11-14T10:11:28;6.82;;;2.60;;
42192;SDS011;52467;40.114;18.306;2022-11-14T10:18:45;5.30;;;2.40;;
42192;SDS011;52467;40.114;18.306;2022-11-14T10:21:08;4.10;;;2.07;;
42192;SDS011;52467;40.114;18.306;2022-11-14T10:30:25;3.90;;;1.90;;
42192;SDS011;52467;40.114;18.306;2022-11-14T10:36:07;4.78;;;2.20;;
42192;SDS011;52467;40.114;18.306;2022-11-14T10:39:20;3.47;;;2.00;;
42192;SDS011;52467;40.114;18.306;2022-11-14T10:42:08;4.35;;;1.98;;
42192;SDS011;52467;40.114;18.306;2022-11-14T10:45:03;2.67;;;1.60;;
42192;SDS011;52467;40.114;18.306;2022-11-14T10:48:01;4.55;;;2.05;;
42192;SDS011;52467;40.114;18.306;2022-11-14T10:51:00;3.63;;;1.85;;
42192;SDS011;52467;40.114;18.306;2022-11-14T10:56:47;2.83;;;1.55;;
42192;SDS011;52467;40.114;18.306;2022-11-14T10:59:35;4.90;;;2.03;;
42192;SDS011;52467;40.114;18.306;2022-11-14T11:02:21;3.37;;;2.20;;
42192;SDS011;52467;40.114;18.306;2022-11-14T11:05:12;3.33;;;1.88;;
42192;SDS011;52467;40.114;18.306;2022-11-14T11:08:00;4.10;;;1.90;;
42192;SDS011;52467;40.114;18.306;2022-11-14T11:11:41;3.90;;;1.50;;
42192;SDS011;52467;40.114;18.306;2022-11-14T11:14:42;3.33;;;2.03;;
42192;SDS011;52467;40.114;18.306;2022-11-14T11:17:29;4.07;;;1.67;;
42192;SDS011;52467;40.114;18.306;2022-11-14T11:23:21;3.20;;;1.80;;
42192;SDS011;52467;40.114;18.306;2022-11-14T11:32:00;4.65;;;1.60;;
42192;SDS011;52467;40.114;18.306;2022-11-14T11:34:45;5.13;;;1.50;;
42192;SDS011;52467;40.114;18.306;2022-11-14T11:37:34;5.72;;;2.08;;
42192;SDS011;52467;40.114;18.306;2022-11-14T11:40:25;5.82;;;1.65;;
42192;SDS011;52467;40.114;18.306;2022-11-14T11:43:14;3.25;;;1.58;;
42192;SDS011;52467;40.114;18.306;2022-11-14T11:46:23;3.30;;;1.40;;
42192;SDS011;52467;40.114;18.306;2022-11-14T11:55:34;3.40;;;1.27;;
42192;SDS011;52467;40.114;18.306;2022-11-14T11:58:32;3.23;;;1.40;;
42192;SDS011;52467;40.114;18.306;2022-11-14T12:01:35;3.00;;;1.50;;
42192;SDS011;52467;40.114;18.306;2022-11-14T12:04:21;3.70;;;1.75;;
42192;SDS011;52467;40.114;18.306;2022-11-14T12:07:11;2.83;;;1.40;;
42192;SDS011;52467;40.114;18.306;2022-11-14T12:10:02;4.47;;;1.50;;
42192;SDS011;52467;40.114;18.306;2022-11-14T12:13:19;3.17;;;1.67;;
42192;SDS011;52467;40.114;18.306;2022-11-14T12:28:40;3.80;;;1.50;;
42192;SDS011;52467;40.114;18.306;2022-11-14T12:31:30;2.38;;;1.27;;
42192;SDS011;52467;40.114;18.306;2022-11-14T12:37:21;4.10;;;1.40;;
42192;SDS011;52467;40.114;18.306;2022-11-14T12:43:23;3.58;;;1.42;;
42192;SDS011;52467;40.114;18.306;2022-11-14T12:46:19;3.67;;;1.30;;
42192;SDS011;52467;40.114;18.306;2022-11-14T12:52:45;3.57;;;1.27;;
42192;SDS011;52467;40.114;18.306;2022-11-14T13:13:15;3.58;;;1.48;;
42192;SDS011;52467;40.114;18.306;2022-11-14T13:16:21;2.40;;;1.10;;
42192;SDS011;52467;40.114;18.306;2022-11-14T13:19:27;4.85;;;1.27;;
42192;SDS011;52467;40.114;18.306;2022-11-14T13:22:35;4.30;;;1.10;;
42192;SDS011;52467;40.114;18.306;2022-11-14T13:25:23;2.58;;;1.10;;
42192;SDS011;52467;40.114;18.306;2022-11-14T13:31:58;3.35;;;1.08;;
42192;SDS011;52467;40.114;18.306;2022-11-14T13:34:56;3.70;;;1.30;;
42192;SDS011;52467;40.114;18.306;2022-11-14T13:50:05;4.13;;;1.40;;
42192;SDS011;52467;40.114;18.306;2022-11-14T13:52:53;4.40;;;1.55;;
42192;SDS011;52467;40.114;18.306;2022-11-14T14:18:39;5.03;;;1.70;;
42192;SDS011;52467;40.114;18.306;2022-11-14T14:21:21;3.67;;;1.90;;
42192;SDS011;52467;40.114;18.306;2022-11-14T14:27:38;6.28;;;1.52;;
42192;SDS011;52467;40.114;18.306;2022-11-14T14:30:35;4.15;;;1.63;;
42192;SDS011;52467;40.114;18.306;2022-11-14T14:33:21;6.93;;;2.00;;
42192;SDS011;52467;40.114;18.306;2022-11-14T14:39:08;4.18;;;2.13;;
42192;SDS011;52467;40.114;18.306;2022-11-14T14:42:01;3.27;;;1.80;;
42192;SDS011;52467;40.114;18.306;2022-11-14T14:44:47;3.45;;;1.90;;
42192;SDS011;52467;40.114;18.306;2022-11-14T14:47:35;4.43;;;2.08;;
42192;SDS011;52467;40.114;18.306;2022-11-14T14:50:25;6.43;;;2.13;;
42192;SDS011;52467;40.114;18.306;2022-11-14T14:53:26;5.00;;;1.90;;
42192;SDS011;52467;40.114;18.306;2022-11-14T14:56:20;4.07;;;1.80;;
42192;SDS011;52467;40.114;18.306;2022-11-14T14:59:16;5.13;;;2.08;;
42192;SDS011;52467;40.114;18.306;2022-11-14T15:02:07;4.88;;;1.90;;
42192;SDS011;52467;40.114;18.306;2022-11-14T15:04:58;5.47;;;1.90;;
42192;SDS011;52467;40.114;18.306;2022-11-14T15:07:48;4.90;;;2.15;;
42192;SDS011;52467;40.114;18.306;2022-11-14T15:10:34;4.47;;;2.03;;
42192;SDS011;52467;40.114;18.306;2022-11-14T15:13:20;4.00;;;2.20;;
42192;SDS011;52467;40.114;18.306;2022-11-14T15:16:07;6.13;;;2.25;;
42192;SDS011;52467;40.114;18.306;2022-11-14T15:18:54;7.93;;;2.23;;
42192;SDS011;52467;40.114;18.306;2022-11-14T15:21:41;5.93;;;2.10;;
42192;SDS011;52467;40.114;18.306;2022-11-14T15:24:28;7.30;;;2.38;;
42192;SDS011;52467;40.114;18.306;2022-11-14T15:27:15;3.75;;;2.15;;
42192;SDS011;52467;40.114;18.306;2022-11-14T15:30:04;4.63;;;2.25;;
42192;SDS011;52467;40.114;18.306;2022-11-14T15:32:53;4.38;;;2.35;;
42192;SDS011;52467;40.114;18.306;2022-11-14T15:35:40;4.28;;;2.50;;
42192;SDS011;52467;40.114;18.306;2022-11-14T15:38:26;3.95;;;2.53;;
42192;SDS011;52467;40.114;18.306;2022-11-14T15:41:27;6.65;;;2.75;;
42192;SDS011;52467;40.114;18.306;2022-11-14T15:44:30;4.25;;;2.67;;
42192;SDS011;52467;40.114;18.306;2022-11-14T15:47:26;4.83;;;2.80;;
42192;SDS011;52467;40.114;18.306;2022-11-14T15:50:24;4.37;;;2.60;;
42192;SDS011;52467;40.114;18.306;2022-11-14T15:53:27;4.50;;;2.72;;
42192;SDS011;52467;40.114;18.306;2022-11-14T15:56:14;6.47;;;3.20;;
42192;SDS011;52467;40.114;18.306;2022-11-14T15:59:00;4.47;;;2.87;;
42192;SDS011;52467;40.114;18.306;2022-11-14T16:01:58;5.97;;;3.03;;
42192;SDS011;52467;40.114;18.306;2022-11-14T16:04:49;6.78;;;2.90;;
42192;SDS011;52467;40.114;18.306;2022-11-14T16:07:36;6.17;;;3.00;;
42192;SDS011;52467;40.114;18.306;2022-11-14T16:10:26;5.90;;;3.13;;
42192;SDS011;52467;40.114;18.306;2022-11-14T16:13:12;7.18;;;3.35;;
42192;SDS011;52467;40.114;18.306;2022-11-14T16:15:58;5.90;;;3.15;;
42192;SDS011;52467;40.114;18.306;2022-11-14T16:18:44;9.43;;;3.60;;
42192;SDS011;52467;40.114;18.306;2022-11-14T16:21:30;8.90;;;4.00;;
42192;SDS011;52467;40.114;18.306;2022-11-14T16:24:17;8.25;;;4.38;;
42192;SDS011;52467;40.114;18.306;2022-11-14T16:27:07;7.95;;;3.63;;
42192;SDS011;52467;40.114;18.306;2022-11-14T16:29:52;9.10;;;3.75;;
42192;SDS011;52467;40.114;18.306;2022-11-14T16:32:39;6.40;;;4.00;;
42192;SDS011;52467;40.114;18.306;2022-11-14T16:35:26;14.83;;;5.33;;
42192;SDS011;52467;40.114;18.306;2022-11-14T16:38:13;10.25;;;5.00;;
42192;SDS011;52467;40.114;18.306;2022-11-14T16:41:04;9.05;;;5.47;;
42192;SDS011;52467;40.114;18.306;2022-11-14T16:43:54;9.77;;;6.05;;
42192;SDS011;52467;40.114;18.306;2022-11-14T16:46:42;10.80;;;6.20;;
42192;SDS011;52467;40.114;18.306;2022-11-14T16:49:29;10.68;;;5.70;;
42192;SDS011;52467;40.114;18.306;2022-11-14T16:52:15;12.50;;;6.40;;
42192;SDS011;52467;40.114;18.306;2022-11-14T16:55:01;14.33;;;6.93;;
42192;SDS011;52467;40.114;18.306;2022-11-14T16:57:47;14.10;;;6.82;;
42192;SDS011;52467;40.114;18.306;2022-11-14T17:00:34;13.27;;;8.00;;
42192;SDS011;52467;40.114;18.306;2022-11-14T17:03:20;16.92;;;8.00;;
42192;SDS011;52467;40.114;18.306;2022-11-14T17:06:07;15.57;;;8.63;;
42192;SDS011;52467;40.114;18.306;2022-11-14T17:08:57;16.50;;;8.90;;
42192;SDS011;52467;40.114;18.306;2022-11-14T17:11:44;14.77;;;8.00;;
42192;SDS011;52467;40.114;18.306;2022-11-14T17:14:30;12.38;;;7.13;;
42192;SDS011;52467;40.114;18.306;2022-11-14T17:17:16;14.88;;;8.43;;
42192;SDS011;52467;40.114;18.306;2022-11-14T17:20:02;17.50;;;8.63;;
42192;SDS011;52467;40.114;18.306;2022-11-14T17:22:49;16.70;;;8.80;;
42192;SDS011;52467;40.114;18.306;2022-11-14T17:25:34;17.23;;;8.93;;
42192;SDS011;52467;40.114;18.306;2022-11-14T17:28:20;17.63;;;8.95;;
42192;SDS011;52467;40.114;18.306;2022-11-14T17:31:07;15.13;;;8.90;;
42192;SDS011;52467;40.114;18.306;2022-11-14T17:33:53;13.20;;;8.48;;
42192;SDS011;52467;40.114;18.306;2022-11-14T17:36:41;15.57;;;8.35;;
42192;SDS011;52467;40.114;18.306;2022-11-14T17:39:27;15.57;;;9.20;;
42192;SDS011;52467;40.114;18.306;2022-11-14T17:42:14;19.97;;;11.37;;
42192;SDS011;52467;40.114;18.306;2022-11-14T17:45:00;18.63;;;10.98;;
42192;SDS011;52467;40.114;18.306;2022-11-14T17:47:46;21.00;;;10.27;;
42192;SDS011;52467;40.114;18.306;2022-11-14T17:50:32;16.60;;;9.10;;
42192;SDS011;52467;40.114;18.306;2022-11-14T17:53:21;16.73;;;8.85;;
42192;SDS011;52467;40.114;18.306;2022-11-14T17:56:18;19.65;;;9.77;;
42192;SDS011;52467;40.114;18.306;2022-11-14T17:59:05;17.85;;;9.38;;
42192;SDS011;52467;40.114;18.306;2022-11-14T18:01:51;18.73;;;11.07;;
42192;SDS011;52467;40.114;18.306;2022-11-14T18:04:39;27.02;;;12.93;;
42192;SDS011;52467;40.114;18.306;2022-11-14T18:07:27;21.13;;;11.02;;
42192;SDS011;52467;40.114;18.306;2022-11-14T18:10:14;18.88;;;11.15;;
42192;SDS011;52467;40.114;18.306;2022-11-14T18:13:00;18.15;;;11.00;;
42192;SDS011;52467;40.114;18.306;2022-11-14T18:15:49;29.23;;;13.73;;
42192;SDS011;52467;40.114;18.306;2022-11-14T18:18:35;25.10;;;13.80;;
42192;SDS011;52467;40.114;18.306;2022-11-14T18:21:22;28.85;;;15.07;;
42192;SDS011;52467;40.114;18.306;2022-11-14T18:24:10;27.40;;;16.65;;
42192;SDS011;52467;40.114;18.306;2022-11-14T18:26:57;33.37;;;18.73;;
42192;SDS011;52467;40.114;18.306;2022-11-14T18:29:43;39.72;;;19.20;;
42192;SDS011;52467;40.114;18.306;2022-11-14T18:32:29;35.50;;;18.43;;
42192;SDS011;52467;40.114;18.306;2022-11-14T18:35:15;31.95;;;17.10;;
42192;SDS011;52467;40.114;18.306;2022-11-14T18:38:01;31.42;;;16.38;;
42192;SDS011;52467;40.114;18.306;2022-11-14T18:40:47;29.70;;;15.77;;